createdAt,value
2022-12-08T00:02:09.610Z,10.60
2022-12-08T00:04:59.647Z,10.47
2022-12-08T00:07:45.100Z,10.37
2022-12-08T00:10:40.248Z,10.52
2022-12-08T00:13:01.634Z,10.72
2022-12-08T00:15:31.269Z,10.80
2022-12-08T00:17:59.493Z,10.85
2022-12-08T00:20:27.816Z,10.89
2022-12-08T00:22:56.067Z,10.99
2022-12-08T00:25:24.276Z,10.84
2022-12-08T00:27:52.504Z,11.02
2022-12-08T00:30:20.843Z,10.84
2022-12-08T00:32:50.449Z,10.83
2022-12-08T00:35:18.706Z,10.97
2022-12-08T00:37:46.930Z,10.98
2022-12-08T00:40:15.428Z,10.98
2022-12-08T00:42:43.719Z,10.98
2022-12-08T00:45:13.002Z,11.05
2022-12-08T00:47:41.357Z,11.08
2022-12-08T00:50:11.750Z,10.96
2022-12-08T00:52:40.046Z,11.06
2022-12-08T00:55:08.975Z,11.12
2022-12-08T00:57:37.247Z,11.03
2022-12-08T01:00:06.900Z,11.05
2022-12-08T01:02:35.401Z,10.96
2022-12-08T01:05:03.604Z,10.85
2022-12-08T01:07:33.506Z,11.00
2022-12-08T01:10:01.918Z,11.08
2022-12-08T01:12:31.328Z,11.07
2022-12-08T01:15:03.054Z,11.08
2022-12-08T01:17:31.454Z,11.02
2022-12-08T01:19:59.856Z,10.62
2022-12-08T01:22:28.104Z,10.87
2022-12-08T01:24:57.774Z,10.95
2022-12-08T01:27:26.033Z,11.18
2022-12-08T01:29:54.351Z,11.17
2022-12-08T01:32:22.554Z,10.88
2022-12-08T01:34:50.902Z,10.93
2022-12-08T01:37:19.150Z,10.77
2022-12-08T01:39:47.372Z,10.73
2022-12-08T01:42:23.455Z,10.91
2022-12-08T01:44:57.609Z,11.03
2022-12-08T01:47:30.700Z,11.15
2022-12-08T01:49:59.365Z,11.12
2022-12-08T01:52:33.945Z,10.95
2022-12-08T01:55:06.950Z,10.83
2022-12-08T01:57:42.853Z,10.66
2022-12-08T02:00:13.625Z,10.57
2022-12-08T02:02:52.343Z,10.77
2022-12-08T02:05:29.017Z,10.61
2022-12-08T02:07:59.118Z,11.00
2022-12-08T02:10:30.784Z,10.94
2022-12-08T02:13:01.808Z,11.11
2022-12-08T02:15:38.802Z,11.11
2022-12-08T02:18:20.864Z,10.98
2022-12-08T02:20:59.461Z,11.03
2022-12-08T02:23:38.551Z,11.09
2022-12-08T02:26:36.478Z,11.07
2022-12-08T02:29:46.606Z,10.94
2022-12-08T02:32:44.351Z,11.05
2022-12-08T02:35:17.721Z,11.08
2022-12-08T02:37:51.730Z,10.97
2022-12-08T02:40:26.016Z,10.73
2022-12-08T02:42:59.141Z,10.74
2022-12-08T02:45:33.146Z,10.96
2022-12-08T02:48:01.891Z,11.08
2022-12-08T02:50:31.632Z,10.98
2022-12-08T02:52:59.866Z,10.94
2022-12-08T02:55:30.329Z,10.22
2022-12-08T02:58:19.916Z,10.43
2022-12-08T03:01:01.801Z,10.23
2022-12-08T03:03:37.114Z,10.18
2022-12-08T03:06:20.993Z,10.54
2022-12-08T03:08:56.905Z,10.80
2022-12-08T03:11:31.829Z,10.48
2022-12-08T03:14:03.057Z,10.65
2022-12-08T03:16:34.045Z,10.84
2022-12-08T03:19:08.799Z,10.86
2022-12-08T03:21:40.330Z,10.98
2022-12-08T03:24:11.284Z,10.26
2022-12-08T03:26:45.074Z,10.13
2022-12-08T03:29:14.259Z,10.15
2022-12-08T03:31:50.675Z,10.00
2022-12-08T03:34:19.954Z,10.00
2022-12-08T03:36:49.586Z,10.00
2022-12-08T03:39:17.842Z,9.97
2022-12-08T03:41:46.775Z,10.13
2022-12-08T03:44:15.135Z,10.24
2022-12-08T03:46:43.347Z,10.32
2022-12-08T03:49:11.748Z,10.52
2022-12-08T03:51:40.033Z,10.66
2022-12-08T03:54:09.697Z,10.79
2022-12-08T03:56:39.779Z,10.46
2022-12-08T03:59:08.762Z,10.45
2022-12-08T04:01:37.091Z,10.52
2022-12-08T04:04:05.554Z,10.67
2022-12-08T04:06:33.964Z,10.62
2022-12-08T04:09:02.207Z,10.79
2022-12-08T04:11:31.873Z,10.75
2022-12-08T04:14:00.146Z,10.45
2022-12-08T04:16:28.719Z,10.48
2022-12-08T04:18:57.129Z,10.53
2022-12-08T04:21:25.471Z,10.79
2022-12-08T04:23:59.181Z,10.41
2022-12-08T04:26:29.650Z,10.82
2022-12-08T04:28:59.364Z,11.01
2022-12-08T04:31:27.807Z,10.99
2022-12-08T04:33:56.127Z,10.90
2022-12-08T04:36:24.499Z,10.87
2022-12-08T04:38:52.823Z,10.82
2022-12-08T04:41:21.151Z,10.81
2022-12-08T04:43:49.521Z,10.67
2022-12-08T04:46:19.310Z,10.51
2022-12-08T04:48:47.594Z,10.70
2022-12-08T04:51:18.103Z,10.81
2022-12-08T04:53:49.876Z,11.00
2022-12-08T04:56:20.540Z,10.94
2022-12-08T04:58:48.995Z,10.28
2022-12-08T05:01:18.697Z,10.93
2022-12-08T05:03:46.928Z,11.00
2022-12-08T05:06:15.861Z,10.55
2022-12-08T05:08:44.581Z,11.00
2022-12-08T05:11:14.470Z,11.04
2022-12-08T05:13:42.796Z,11.07
2022-12-08T05:16:13.623Z,11.03
2022-12-08T05:18:44.047Z,11.10
2022-12-08T05:21:12.550Z,10.99
2022-12-08T05:23:40.841Z,11.01
2022-12-08T05:26:09.291Z,11.07
2022-12-08T05:28:42.227Z,11.04
2022-12-08T05:31:11.022Z,11.03
2022-12-08T05:33:39.361Z,11.02
2022-12-08T05:36:09.529Z,10.97
2022-12-08T05:38:37.824Z,10.69
2022-12-08T05:41:07.594Z,11.00
2022-12-08T05:43:36.174Z,10.89
2022-12-08T05:46:04.742Z,11.00
2022-12-08T05:48:32.985Z,10.95
2022-12-08T05:51:01.509Z,10.89
2022-12-08T05:53:31.421Z,10.92
2022-12-08T05:55:59.735Z,10.92
2022-12-08T05:58:27.960Z,10.98
2022-12-08T06:00:56.276Z,10.92
2022-12-08T06:03:24.550Z,10.84
2022-12-08T06:05:52.841Z,11.00
2022-12-08T06:08:21.161Z,10.98
2022-12-08T06:10:50.913Z,10.98
2022-12-08T06:13:19.131Z,10.99
2022-12-08T06:15:47.474Z,10.95
2022-12-08T06:18:15.687Z,10.74
2022-12-08T06:20:43.965Z,10.83
2022-12-08T06:23:12.288Z,10.94
2022-12-08T06:25:40.527Z,10.67
2022-12-08T06:28:10.309Z,10.74
2022-12-08T06:30:39.227Z,10.74
2022-12-08T06:33:07.530Z,10.91
2022-12-08T06:35:35.850Z,10.86
2022-12-08T06:38:04.258Z,10.91
2022-12-08T06:40:32.512Z,10.90
2022-12-08T06:43:00.744Z,10.89
2022-12-08T06:45:30.481Z,10.70
2022-12-08T06:47:58.878Z,10.32
2022-12-08T06:50:27.177Z,10.46
2022-12-08T06:53:04.488Z,10.69
2022-12-08T06:58:22.528Z,10.11
2022-12-08T07:00:52.313Z,10.48
2022-12-08T07:03:20.749Z,10.52
2022-12-08T07:05:49.207Z,10.51
2022-12-08T07:08:17.606Z,10.64
2022-12-08T07:10:48.176Z,10.65
2022-12-08T07:13:16.401Z,10.78
2022-12-08T07:15:44.673Z,10.77
2022-12-08T07:18:14.454Z,11.08
2022-12-08T07:20:42.711Z,10.87
2022-12-08T07:23:11.022Z,10.92
2022-12-08T07:25:39.354Z,10.61
2022-12-08T07:28:12.536Z,10.93
2022-12-08T07:30:41.017Z,10.92
2022-12-08T07:33:09.271Z,10.93
2022-12-08T07:35:38.961Z,10.76
2022-12-08T07:38:11.386Z,10.91
2022-12-08T07:40:42.497Z,10.77
2022-12-08T07:43:10.800Z,11.03
2022-12-08T07:45:39.179Z,11.04
2022-12-08T07:48:09.341Z,10.64
2022-12-08T07:50:39.295Z,10.65
2022-12-08T07:53:08.216Z,10.58
2022-12-08T07:55:40.264Z,10.92
2022-12-08T07:58:08.870Z,11.19
2022-12-08T08:00:37.849Z,10.95
2022-12-08T08:03:06.409Z,11.08
2022-12-08T08:05:35.629Z,11.29
2022-12-08T08:08:06.187Z,11.35
2022-12-08T08:10:34.441Z,11.51
2022-12-08T08:13:02.972Z,11.67
2022-12-08T08:15:31.419Z,11.86
2022-12-08T08:17:59.749Z,12.03
2022-12-08T08:20:28.277Z,11.61
2022-12-08T08:22:56.531Z,11.90
2022-12-08T08:25:26.219Z,11.98
2022-12-08T08:27:55.888Z,12.26
2022-12-08T08:30:24.088Z,12.31
2022-12-08T08:32:52.554Z,12.02
2022-12-08T08:35:21.246Z,12.11
2022-12-08T08:37:49.755Z,12.01
2022-12-08T08:40:18.846Z,12.21
2022-12-08T08:42:48.479Z,12.20
2022-12-08T08:45:16.739Z,12.12
2022-12-08T08:47:45.054Z,12.18
2022-12-08T08:50:13.516Z,12.31
2022-12-08T08:52:41.763Z,12.22
2022-12-08T08:55:10.414Z,12.21
2022-12-08T08:57:38.839Z,12.41
2022-12-08T09:00:10.838Z,11.80
2022-12-08T09:02:42.054Z,11.81
2022-12-08T09:05:10.567Z,11.98
2022-12-08T09:07:38.909Z,12.33
2022-12-08T09:10:09.661Z,12.58
2022-12-08T09:12:37.945Z,12.30
2022-12-08T09:15:08.762Z,12.18
2022-12-08T09:17:37.041Z,12.43
2022-12-08T09:20:06.109Z,12.71
2022-12-08T09:22:34.598Z,12.59
2022-12-08T09:25:02.835Z,12.61
2022-12-08T09:27:32.046Z,12.58
2022-12-08T09:30:00.814Z,12.00
2022-12-08T09:32:31.652Z,12.18
2022-12-08T09:34:59.887Z,12.18
2022-12-08T09:37:28.566Z,12.12
2022-12-08T09:39:57.363Z,12.22
2022-12-08T09:42:38.391Z,11.92
2022-12-08T09:45:12.146Z,12.09
2022-12-08T09:47:46.864Z,12.17
2022-12-08T09:50:20.971Z,12.24
2022-12-08T09:53:02.515Z,12.19
2022-12-08T09:55:40.448Z,12.32
2022-12-08T09:58:18.861Z,12.02
2022-12-08T10:00:47.209Z,12.05
2022-12-08T10:03:17.248Z,11.99
2022-12-08T10:05:51.372Z,11.98
2022-12-08T10:08:22.498Z,12.06
2022-12-08T10:10:58.571Z,12.03
2022-12-08T10:13:34.595Z,12.32
2022-12-08T10:16:24.148Z,12.36
2022-12-08T10:19:02.804Z,12.45
2022-12-08T10:21:33.890Z,12.43
2022-12-08T10:24:08.767Z,12.50
2022-12-08T10:26:37.267Z,12.68
2022-12-08T10:29:07.079Z,12.59
2022-12-08T10:31:35.468Z,12.41
2022-12-08T10:34:17.525Z,12.06
2022-12-08T10:36:51.841Z,11.98
2022-12-08T10:39:38.471Z,11.60
2022-12-08T10:42:16.692Z,11.78
2022-12-08T10:44:56.094Z,12.08
2022-12-08T10:47:27.005Z,12.18
2022-12-08T10:50:23.555Z,12.32
2022-12-08T10:52:57.564Z,12.21
2022-12-08T10:55:25.857Z,12.13
2022-12-08T10:57:56.031Z,12.26
2022-12-08T11:00:27.471Z,12.32
2022-12-08T11:02:59.568Z,12.41
2022-12-08T11:05:33.266Z,12.46
2022-12-08T11:08:02.067Z,12.51
2022-12-08T11:10:36.820Z,12.26
2022-12-08T11:13:07.580Z,12.01
2022-12-08T11:15:39.549Z,12.13
2022-12-08T11:18:27.100Z,12.71
2022-12-08T11:21:03.184Z,12.61
2022-12-08T11:23:32.219Z,12.81
2022-12-08T11:26:09.729Z,13.23
2022-12-08T11:28:38.052Z,13.39
2022-12-08T11:31:16.102Z,13.16
2022-12-08T11:33:45.886Z,13.11
2022-12-08T11:36:17.610Z,13.02
2022-12-08T11:38:51.287Z,12.97
2022-12-08T11:41:25.153Z,13.08
2022-12-08T11:43:58.523Z,12.60
2022-12-08T11:46:31.699Z,13.19
2022-12-08T11:49:06.695Z,12.21
2022-12-08T11:51:40.871Z,13.09
2022-12-08T11:54:19.678Z,13.04
2022-12-08T11:56:50.782Z,13.22
2022-12-08T11:59:25.315Z,13.43
2022-12-08T12:01:53.800Z,13.21
2022-12-08T12:04:29.170Z,13.25
2022-12-08T12:07:30.727Z,13.29
2022-12-08T12:10:15.156Z,13.50
2022-12-08T12:12:59.381Z,13.42
2022-12-08T12:15:53.530Z,13.58
2022-12-08T12:18:28.505Z,13.45
2022-12-08T12:21:00.100Z,13.35
2022-12-08T12:23:38.311Z,13.38
2022-12-08T12:26:09.794Z,13.63
2022-12-08T12:28:46.445Z,13.62
2022-12-08T12:31:18.281Z,13.18
2022-12-08T12:33:48.460Z,13.05
2022-12-08T12:36:18.219Z,13.19
2022-12-08T12:39:03.652Z,13.52
2022-12-08T12:41:38.887Z,13.54
2022-12-08T12:44:41.117Z,13.56
2022-12-08T12:47:14.869Z,13.42
2022-12-08T12:49:54.625Z,13.46
2022-12-08T12:52:48.928Z,13.57
2022-12-08T12:55:50.747Z,13.57
2022-12-08T12:58:38.329Z,13.58
2022-12-08T13:01:39.020Z,13.30
2022-12-08T13:04:10.763Z,13.27
2022-12-08T13:06:42.517Z,13.30
2022-12-08T13:09:25.520Z,13.59
2022-12-08T13:11:58.699Z,13.42
2022-12-08T13:14:36.743Z,12.89
2022-12-08T13:17:11.694Z,13.35
2022-12-08T13:19:41.512Z,13.48
2022-12-08T13:22:46.701Z,13.41
2022-12-08T13:25:57.402Z,13.34
2022-12-08T13:28:29.867Z,12.93
2022-12-08T13:30:59.837Z,12.29
2022-12-08T13:33:32.022Z,12.99
2022-12-08T13:36:22.593Z,13.01
2022-12-08T13:38:57.387Z,13.00
2022-12-08T13:41:37.066Z,13.08
2022-12-08T13:45:17.846Z,12.99
2022-12-08T13:47:32.114Z,13.08
2022-12-08T13:56:59.749Z,12.71
2022-12-08T13:58:34.519Z,12.33
2022-12-08T14:01:10.412Z,12.64
2022-12-08T14:04:11.700Z,12.67
2022-12-08T14:06:38.154Z,12.53
2022-12-08T14:09:11.710Z,12.81
2022-12-08T14:11:44.513Z,12.61
2022-12-08T14:14:32.518Z,12.46
2022-12-08T14:17:13.182Z,12.60
2022-12-08T14:19:44.707Z,12.59
2022-12-08T14:22:15.037Z,12.58
2022-12-08T14:24:46.739Z,12.67
2022-12-08T14:27:18.745Z,12.64
2022-12-08T14:29:48.710Z,12.55
2022-12-08T14:32:28.816Z,12.43
2022-12-08T14:34:59.886Z,12.59
2022-12-08T14:37:30.132Z,12.30
2022-12-08T14:40:06.134Z,12.14
2022-12-08T14:42:45.033Z,12.15
2022-12-08T14:45:14.992Z,12.06
2022-12-08T14:47:45.745Z,12.29
2022-12-08T14:50:39.877Z,12.45
2022-12-08T14:53:15.258Z,11.88
2022-12-08T14:55:46.111Z,12.22
2022-12-08T14:58:20.707Z,11.64
2022-12-08T15:00:51.664Z,12.10
2022-12-08T15:03:23.928Z,12.12
2022-12-08T15:05:54.101Z,12.25
2022-12-08T15:08:22.514Z,11.91
2022-12-08T15:11:19.270Z,11.77
2022-12-08T15:13:48.552Z,12.06
2022-12-08T15:16:27.156Z,12.13
2022-12-08T15:19:18.997Z,12.15
2022-12-08T15:21:48.175Z,12.20
2022-12-08T15:24:18.099Z,12.14
2022-12-08T15:26:48.282Z,12.16
2022-12-08T15:29:22.377Z,12.14
2022-12-08T15:31:52.687Z,12.07
2022-12-08T15:34:23.147Z,12.13
2022-12-08T15:36:53.429Z,11.92
2022-12-08T15:39:34.274Z,11.92
2022-12-08T15:42:03.622Z,11.97
2022-12-08T15:44:33.050Z,12.00
2022-12-08T15:47:02.086Z,11.28
2022-12-08T15:49:32.052Z,11.70
2022-12-08T15:52:10.773Z,11.67
2022-12-08T15:54:39.882Z,11.70
2022-12-08T15:57:19.563Z,11.67
2022-12-08T15:59:54.421Z,11.63
2022-12-08T16:02:25.030Z,11.44
2022-12-08T16:07:43.588Z,11.54
2022-12-08T16:10:18.101Z,11.39
2022-12-08T16:15:59.863Z,11.20
2022-12-08T16:18:33.001Z,11.23
2022-12-08T16:21:13.315Z,11.18
2022-12-08T16:23:51.434Z,11.20
2022-12-08T16:27:28.408Z,11.08
2022-12-08T16:29:17.804Z,11.20
2022-12-08T16:31:46.097Z,11.06
2022-12-08T16:34:14.415Z,11.02
2022-12-08T16:36:43.971Z,10.72
2022-12-08T16:39:14.948Z,10.94
2022-12-08T16:42:00.814Z,10.59
2022-12-08T16:44:29.172Z,10.67
2022-12-08T16:46:57.445Z,10.82
2022-12-08T16:49:29.020Z,10.72
2022-12-08T16:51:58.982Z,10.63
2022-12-08T16:54:27.463Z,10.86
2022-12-08T16:56:55.932Z,11.04
2022-12-08T16:59:24.174Z,11.16
2022-12-08T17:01:52.647Z,11.29
2022-12-08T17:04:31.289Z,11.38
2022-12-08T17:09:47.441Z,11.12
2022-12-08T17:12:15.721Z,10.74
2022-12-08T17:14:43.972Z,10.95
2022-12-08T17:17:12.157Z,11.08
2022-12-08T17:19:40.447Z,10.98
2022-12-08T17:22:10.086Z,10.84
2022-12-08T17:24:39.421Z,10.63
2022-12-08T17:27:07.602Z,10.83
2022-12-08T17:29:36.160Z,10.84
2022-12-08T17:32:04.551Z,10.74
2022-12-08T17:34:32.850Z,10.79
2022-12-08T17:37:01.049Z,10.84
2022-12-08T17:39:30.721Z,10.88
2022-12-08T17:41:58.970Z,10.63
2022-12-08T17:44:28.259Z,10.86
2022-12-08T17:46:56.505Z,10.99
2022-12-08T17:49:27.051Z,10.97
2022-12-08T17:51:57.891Z,10.98
2022-12-08T17:54:26.935Z,11.02
2022-12-08T17:56:58.762Z,10.65
2022-12-08T17:59:28.656Z,10.64
2022-12-08T18:01:58.146Z,10.78
2022-12-08T18:04:27.913Z,10.93
2022-12-08T18:06:58.379Z,10.95
2022-12-08T18:09:26.666Z,10.79
2022-12-08T18:11:56.412Z,10.89
2022-12-08T18:14:24.909Z,11.00
2022-12-08T18:16:53.474Z,11.18
2022-12-08T18:19:21.742Z,11.30
2022-12-08T18:21:49.978Z,11.37
2022-12-08T18:24:21.030Z,11.30
2022-12-08T18:26:51.870Z,11.29
2022-12-08T18:29:22.594Z,11.31
2022-12-08T18:31:51.634Z,11.05
2022-12-08T18:34:20.134Z,11.18
2022-12-08T18:36:48.853Z,11.24
2022-12-08T18:39:25.407Z,11.17
2022-12-08T18:41:54.487Z,11.15
2022-12-08T18:44:24.235Z,11.21
2022-12-08T18:46:52.587Z,11.25
2022-12-08T18:49:21.196Z,10.93
2022-12-08T18:51:49.538Z,10.76
2022-12-08T18:54:17.945Z,10.96
2022-12-08T18:56:46.239Z,11.04
2022-12-08T18:59:14.846Z,10.95
2022-12-08T19:01:44.507Z,10.93
2022-12-08T19:04:29.297Z,10.95
2022-12-08T19:06:57.965Z,10.91
2022-12-08T19:09:27.065Z,10.94
2022-12-08T19:11:55.617Z,10.79
2022-12-08T19:14:28.245Z,10.90
2022-12-08T19:16:58.973Z,10.91
2022-12-08T19:19:27.649Z,10.83
2022-12-08T19:21:56.109Z,10.84
2022-12-08T19:24:24.831Z,10.78
2022-12-08T19:26:53.151Z,10.81
2022-12-08T19:29:21.530Z,10.62
2022-12-08T19:31:49.998Z,10.55
2022-12-08T19:34:22.709Z,10.71
2022-12-08T19:36:51.159Z,10.78
2022-12-08T19:39:38.325Z,10.63
2022-12-08T19:42:31.078Z,10.72
2022-12-08T19:45:02.406Z,10.82
2022-12-08T19:47:30.745Z,10.60
2022-12-08T19:50:14.325Z,10.77
2022-12-08T19:52:42.966Z,10.50
2022-12-08T19:55:11.973Z,10.82
2022-12-08T19:57:40.315Z,10.91
2022-12-08T20:00:10.636Z,10.85
2022-12-08T20:02:39.076Z,10.67
2022-12-08T20:05:12.491Z,10.36
2022-12-08T20:07:41.625Z,10.44
2022-12-08T20:10:15.743Z,10.28
2022-12-08T20:12:44.028Z,9.61
2022-12-08T20:15:12.677Z,10.26
2022-12-08T20:17:41.013Z,10.38
2022-12-08T20:20:13.160Z,10.42
2022-12-08T20:22:41.763Z,10.39
2022-12-08T20:25:12.984Z,10.46
2022-12-08T20:27:42.590Z,10.70
2022-12-08T20:30:16.684Z,10.70
2022-12-08T20:32:45.547Z,10.65
2022-12-08T20:35:16.373Z,10.60
2022-12-08T20:37:44.850Z,10.31
2022-12-08T20:40:13.589Z,10.23
2022-12-08T20:42:41.855Z,10.42
2022-12-08T20:45:10.757Z,10.47
2022-12-08T20:47:39.141Z,10.56
2022-12-08T20:50:09.149Z,10.53
2022-12-08T20:52:39.303Z,10.70
2022-12-08T20:55:09.361Z,10.73
2022-12-08T20:57:37.946Z,10.81
2022-12-08T21:00:08.858Z,10.78
2022-12-08T21:02:43.244Z,10.68
2022-12-08T21:05:13.757Z,10.38
2022-12-08T21:07:43.642Z,10.16
2022-12-08T21:10:12.698Z,10.29
2022-12-08T21:12:44.045Z,10.61
2022-12-08T21:15:13.408Z,10.56
2022-12-08T21:17:42.263Z,10.70
2022-12-08T21:20:11.553Z,10.61
2022-12-08T21:22:40.438Z,10.54
2022-12-08T21:25:11.347Z,10.39
2022-12-08T21:27:40.283Z,10.15
2022-12-08T21:30:10.883Z,10.31
2022-12-08T21:32:40.222Z,10.33
2022-12-08T21:35:09.830Z,10.29
2022-12-08T21:37:38.422Z,10.17
2022-12-08T21:40:08.175Z,9.68
2022-12-08T21:42:47.315Z,9.89
2022-12-08T21:45:18.111Z,10.17
2022-12-08T21:47:48.243Z,9.92
2022-12-08T21:50:17.735Z,9.74
2022-12-08T21:52:49.104Z,10.26
2022-12-08T21:55:19.227Z,10.37
2022-12-08T21:57:49.254Z,10.38
2022-12-08T22:00:19.270Z,10.23
2022-12-08T22:02:47.754Z,10.32
2022-12-08T22:05:16.175Z,10.25
2022-12-08T22:07:44.814Z,10.26
2022-12-08T22:10:13.774Z,10.27
2022-12-08T22:12:42.508Z,10.19
2022-12-08T22:15:13.456Z,9.98
2022-12-08T22:17:43.455Z,10.15
2022-12-08T22:20:14.992Z,9.96
2022-12-08T22:22:43.588Z,10.15
2022-12-08T22:25:13.230Z,10.21
2022-12-08T22:27:42.655Z,10.30
2022-12-08T22:30:13.560Z,10.43
2022-12-08T22:32:42.434Z,10.47
2022-12-08T22:35:11.602Z,10.52
2022-12-08T22:37:40.493Z,10.47
2022-12-08T22:40:10.106Z,10.52
2022-12-08T22:42:38.643Z,10.56
2022-12-08T22:45:08.110Z,10.57
2022-12-08T22:47:37.891Z,10.60
2022-12-08T22:50:07.896Z,10.38
2022-12-08T22:52:55.148Z,10.42
2022-12-08T22:55:23.747Z,10.43
2022-12-08T22:57:52.047Z,10.51
2022-12-08T23:00:21.378Z,10.30
2022-12-08T23:02:51.234Z,10.46
2022-12-08T23:05:19.849Z,10.40
2022-12-08T23:07:48.522Z,10.32
2022-12-08T23:10:16.959Z,10.48
2022-12-08T23:12:45.219Z,10.08
2022-12-08T23:15:13.943Z,10.07
2022-12-08T23:17:42.522Z,10.17
2022-12-08T23:20:13.537Z,10.22
2022-12-08T23:22:41.807Z,10.28
2022-12-08T23:25:10.843Z,10.41
2022-12-08T23:27:39.556Z,10.48
2022-12-08T23:30:10.306Z,10.46
2022-12-08T23:32:39.232Z,10.39
2022-12-08T23:35:09.002Z,10.16
2022-12-08T23:37:38.785Z,10.15
2022-12-08T23:40:08.823Z,10.21
2022-12-08T23:42:37.242Z,10.25
2022-12-08T23:45:08.460Z,9.94
2022-12-08T23:47:36.971Z,9.75
2022-12-08T23:50:06.617Z,9.52
2022-12-08T23:52:35.212Z,9.57
2022-12-08T23:55:05.148Z,9.63
2022-12-08T23:57:33.508Z,9.48
